createdAt,value
2022-08-16T00:03:36.721Z,52.27
2022-08-16T00:08:42.017Z,52.31
2022-08-16T00:13:54.202Z,52.15
2022-08-16T00:18:57.698Z,52.23
2022-08-16T00:24:04.502Z,52.47
2022-08-16T00:29:07.986Z,52.33
2022-08-16T00:34:18.479Z,52.48
2022-08-16T00:39:23.031Z,52.49
2022-08-16T00:44:31.945Z,52.54
2022-08-16T00:49:39.796Z,52.69
2022-08-16T00:54:49.145Z,52.73
2022-08-16T00:59:58.657Z,52.69
2022-08-16T01:05:11.313Z,52.61
2022-08-16T01:10:16.673Z,52.67
2022-08-16T01:15:19.902Z,52.83
2022-08-16T01:20:30.129Z,53.46
2022-08-16T01:25:37.117Z,53.47
2022-08-16T01:30:49.530Z,53.38
2022-08-16T01:35:56.190Z,53.44
2022-08-16T01:41:04.259Z,53.34
2022-08-16T01:46:29.875Z,53.45
2022-08-16T01:51:34.806Z,53.83
2022-08-16T01:56:44.921Z,53.90
2022-08-16T02:01:56.285Z,54.49
2022-08-16T02:07:08.694Z,54.37
2022-08-16T02:12:50.304Z,53.87
2022-08-16T02:17:39.964Z,53.76
2022-08-16T02:22:42.977Z,53.97
2022-08-16T02:27:51.713Z,53.80
2022-08-16T02:32:55.374Z,53.55
2022-08-16T02:38:01.842Z,53.61
2022-08-16T02:43:13.963Z,53.48
2022-08-16T02:48:29.550Z,53.38
2022-08-16T02:53:33.481Z,53.23
2022-08-16T02:58:37.841Z,53.24
2022-08-16T03:04:29.001Z,53.22
2022-08-16T03:09:09.751Z,53.17
2022-08-16T03:14:21.210Z,53.10
2022-08-16T03:19:48.798Z,53.02
2022-08-16T03:24:57.207Z,53.29
2022-08-16T03:30:16.026Z,53.11
2022-08-16T03:35:22.646Z,53.08
2022-08-16T03:40:32.946Z,53.49
2022-08-16T03:45:38.225Z,53.58
2022-08-16T03:50:44.324Z,55.43
2022-08-16T03:56:03.623Z,56.21
2022-08-16T04:01:07.824Z,55.68
2022-08-16T04:06:10.969Z,55.86
2022-08-16T04:11:16.435Z,56.33
2022-08-16T04:16:21.916Z,56.31
2022-08-16T04:21:30.871Z,56.25
2022-08-16T04:26:36.235Z,56.18
2022-08-16T04:31:40.646Z,56.62
2022-08-16T04:36:48.904Z,56.73
2022-08-16T04:41:57.100Z,56.74
2022-08-16T04:47:02.866Z,57.09
2022-08-16T04:52:33.349Z,56.79
2022-08-16T04:57:30.625Z,57.48
2022-08-16T05:02:41.649Z,56.91
2022-08-16T05:07:58.276Z,57.06
2022-08-16T05:13:03.802Z,57.63
2022-08-16T05:18:08.010Z,57.70
2022-08-16T05:23:31.725Z,57.15
2022-08-16T05:28:37.516Z,57.14
2022-08-16T05:33:44.368Z,57.06
2022-08-16T05:38:58.171Z,56.91
2022-08-16T05:44:05.353Z,56.68
2022-08-16T05:49:39.213Z,57.35
2022-08-16T05:54:47.783Z,57.51
2022-08-16T06:00:07.013Z,57.25
2022-08-16T06:05:22.594Z,57.24
2022-08-16T06:10:32.424Z,56.77
2022-08-16T06:15:39.050Z,56.90
2022-08-16T06:20:55.039Z,56.57
2022-08-16T06:26:00.417Z,56.62
2022-08-16T06:31:11.988Z,56.52
2022-08-16T06:36:20.943Z,57.13
2022-08-16T06:41:56.905Z,57.08
2022-08-16T06:47:41.929Z,56.92
2022-08-16T06:53:08.659Z,57.04
2022-08-16T06:58:21.703Z,56.75
2022-08-16T07:03:32.207Z,56.33
2022-08-16T07:08:38.344Z,56.48
2022-08-16T07:14:00.288Z,56.72
2022-08-16T07:19:09.694Z,57.65
2022-08-16T07:24:29.766Z,56.63
2022-08-16T07:29:37.500Z,56.44
2022-08-16T07:34:48.479Z,56.46
2022-08-16T07:39:54.992Z,55.50
2022-08-16T07:44:58.733Z,55.03
2022-08-16T07:50:05.435Z,55.95
2022-08-16T07:55:13.855Z,55.03
2022-08-16T08:00:18.731Z,56.31
2022-08-16T08:05:35.964Z,55.27
2022-08-16T08:10:42.218Z,55.66
2022-08-16T08:15:52.945Z,54.70
2022-08-16T08:20:59.354Z,55.60
2022-08-16T08:26:10.031Z,55.06
2022-08-16T08:31:20.501Z,54.79
2022-08-16T08:36:33.289Z,53.69
2022-08-16T08:41:42.426Z,54.23
2022-08-16T08:47:00.350Z,54.26
2022-08-16T08:52:07.958Z,53.55
2022-08-16T08:57:12.798Z,53.45
2022-08-16T09:02:52.591Z,53.31
2022-08-16T09:08:01.595Z,53.71
2022-08-16T09:13:21.148Z,53.91
2022-08-16T09:18:35.900Z,52.69
2022-08-16T09:23:41.067Z,52.64
2022-08-16T09:29:15.376Z,52.18
2022-08-16T09:34:12.964Z,52.11
2022-08-16T09:39:21.705Z,51.56
2022-08-16T09:45:11.181Z,51.09
2022-08-16T09:49:51.035Z,51.00
2022-08-16T09:54:54.637Z,51.02
2022-08-16T10:00:00.923Z,50.97
2022-08-16T10:05:15.090Z,50.01
2022-08-16T10:10:18.856Z,50.73
2022-08-16T10:15:35.119Z,50.93
2022-08-16T10:20:38.750Z,50.68
2022-08-16T10:27:19.780Z,50.59
2022-08-16T10:31:07.866Z,50.64
2022-08-16T10:36:38.786Z,50.69
2022-08-16T10:41:36.040Z,51.03
2022-08-16T10:46:42.258Z,50.71
2022-08-16T10:52:01.865Z,50.52
2022-08-16T10:57:06.493Z,50.81
2022-08-16T11:02:57.954Z,50.60
2022-08-16T11:07:42.954Z,50.54
2022-08-16T11:12:46.700Z,50.93
2022-08-16T11:18:48.481Z,50.61
2022-08-16T11:23:14.143Z,51.02
2022-08-16T11:33:59.383Z,50.48
2022-08-16T11:39:02.545Z,50.50
2022-08-16T11:44:06.451Z,50.67
2022-08-16T11:49:13.599Z,50.38
2022-08-16T11:54:21.160Z,50.34
2022-08-16T11:59:28.647Z,49.55
2022-08-16T12:04:34.003Z,50.93
2022-08-16T12:09:41.241Z,50.44
2022-08-16T12:14:46.046Z,50.69
2022-08-16T12:19:50.318Z,50.37
2022-08-16T12:24:53.351Z,50.18
2022-08-16T12:29:58.709Z,50.36
2022-08-16T12:35:03.378Z,50.39
2022-08-16T12:40:24.053Z,50.24
2022-08-16T12:45:29.386Z,50.69
2022-08-16T12:50:33.546Z,50.44
2022-08-16T12:55:41.880Z,50.99
2022-08-16T13:00:46.852Z,50.92
2022-08-16T13:05:55.197Z,50.79
2022-08-16T13:10:58.903Z,50.93
2022-08-16T13:16:10.733Z,51.02
2022-08-16T13:21:24.337Z,51.01
2022-08-16T13:26:29.123Z,51.42
2022-08-16T13:31:33.825Z,51.57
2022-08-16T13:36:48.788Z,51.57
2022-08-16T13:41:56.384Z,51.26
2022-08-16T13:46:59.290Z,51.42
2022-08-16T13:52:03.524Z,51.44
2022-08-16T13:57:06.661Z,51.70
2022-08-16T14:02:14.576Z,51.70
2022-08-16T14:07:20.026Z,51.87
2022-08-16T14:12:28.388Z,51.61
2022-08-16T14:18:15.931Z,51.75
2022-08-16T14:22:55.668Z,51.72
2022-08-16T14:27:58.430Z,51.87
2022-08-16T14:33:04.263Z,51.60
2022-08-16T14:38:10.851Z,51.49
2022-08-16T14:43:16.309Z,51.65
2022-08-16T14:48:26.087Z,51.68
2022-08-16T14:53:32.639Z,51.64
2022-08-16T14:58:38.019Z,51.72
2022-08-16T15:03:42.263Z,51.66
2022-08-16T15:08:48.718Z,51.30
2022-08-16T15:13:54.945Z,51.22
2022-08-16T15:18:59.091Z,50.79
2022-08-16T15:24:03.269Z,50.57
2022-08-16T15:29:08.408Z,50.82
2022-08-16T15:34:21.870Z,50.79
2022-08-16T15:39:38.898Z,50.15
2022-08-16T15:44:52.309Z,50.43
2022-08-16T15:49:57.885Z,50.41
2022-08-16T15:55:13.311Z,50.48
2022-08-16T16:00:27.532Z,50.04
2022-08-16T16:05:30.580Z,50.47
2022-08-16T16:10:37.319Z,50.12
2022-08-16T16:15:43.429Z,49.95
2022-08-16T16:20:48.089Z,49.88
2022-08-16T16:25:53.492Z,49.99
2022-08-16T16:30:56.626Z,49.90
2022-08-16T16:36:00.111Z,49.47
2022-08-16T16:41:08.895Z,46.79
2022-08-16T16:46:41.396Z,45.95
2022-08-16T16:51:40.950Z,48.20
2022-08-16T16:56:49.664Z,48.84
2022-08-16T17:02:00.211Z,48.70
2022-08-16T17:07:15.983Z,48.91
2022-08-16T17:12:25.076Z,49.54
2022-08-16T17:18:00.304Z,49.64
2022-08-16T17:23:04.882Z,49.71
2022-08-16T17:28:58.132Z,49.77
2022-08-16T17:33:37.282Z,49.75
2022-08-16T17:38:55.861Z,49.89
2022-08-16T17:44:01.020Z,49.75
2022-08-16T17:49:03.904Z,49.83
2022-08-16T17:54:06.819Z,49.55
2022-08-16T17:59:11.187Z,49.54
2022-08-16T18:04:14.046Z,49.67
2022-08-16T18:09:36.815Z,49.80
2022-08-16T18:14:51.042Z,49.83
2022-08-16T18:19:55.547Z,49.54
2022-08-16T18:24:58.293Z,50.24
2022-08-16T18:30:02.482Z,49.78
2022-08-16T18:35:05.819Z,50.29
2022-08-16T18:40:09.937Z,50.37
2022-08-16T18:45:14.397Z,50.30
2022-08-16T18:50:17.354Z,50.19
2022-08-16T18:55:20.706Z,50.21
2022-08-16T19:00:28.425Z,49.98
2022-08-16T19:05:31.857Z,50.23
2022-08-16T19:10:34.750Z,50.23
2022-08-16T19:15:39.165Z,50.34
2022-08-16T19:20:42.035Z,50.40
2022-08-16T19:25:49.535Z,50.45
2022-08-16T19:30:57.083Z,49.79
2022-08-16T19:35:59.849Z,48.23
2022-08-16T19:41:02.583Z,47.73
2022-08-16T19:46:07.291Z,48.87
2022-08-16T19:51:10.140Z,48.86
2022-08-16T19:56:13.180Z,49.26
2022-08-16T20:01:17.865Z,49.67
2022-08-16T20:06:38.086Z,49.44
2022-08-16T20:11:41.596Z,49.29
2022-08-16T20:16:46.692Z,48.75
2022-08-16T20:21:49.822Z,49.09
2022-08-16T20:26:52.599Z,48.96
2022-08-16T20:31:56.800Z,48.58
2022-08-16T20:36:59.609Z,48.72
2022-08-16T20:42:02.442Z,48.80
2022-08-16T20:47:07.111Z,48.59
2022-08-16T20:52:10.653Z,48.18
2022-08-16T20:57:13.573Z,47.93
2022-08-16T21:02:24.818Z,47.83
2022-08-16T21:07:27.582Z,48.49
2022-08-16T21:12:33.818Z,48.60
2022-08-16T21:17:41.830Z,48.50
2022-08-16T21:22:47.141Z,48.33
2022-08-16T21:28:41.272Z,48.41
2022-08-16T21:33:18.226Z,48.12
2022-08-16T21:38:28.612Z,48.02
2022-08-16T21:43:33.546Z,48.59
2022-08-16T21:48:40.508Z,48.44
2022-08-16T21:53:43.805Z,48.44
2022-08-16T21:58:46.580Z,48.18
2022-08-16T22:03:57.993Z,48.25
2022-08-16T22:09:19.815Z,47.94
2022-08-16T22:14:22.646Z,48.24
2022-08-16T22:19:26.847Z,47.93
2022-08-16T22:24:29.724Z,47.75
2022-08-16T22:29:32.480Z,47.61
2022-08-16T22:34:36.622Z,47.74
2022-08-16T22:39:39.472Z,47.48
2022-08-16T22:44:46.308Z,47.69
2022-08-16T22:49:50.746Z,48.26
2022-08-16T22:54:53.619Z,48.75
2022-08-16T22:59:56.353Z,48.75
2022-08-16T23:05:00.434Z,48.82
2022-08-16T23:10:03.208Z,48.42
2022-08-16T23:15:06.839Z,48.56
2022-08-16T23:20:12.527Z,48.41
2022-08-16T23:25:19.650Z,48.53
2022-08-16T23:30:22.555Z,48.52
2022-08-16T23:35:27.742Z,48.62
2022-08-16T23:40:48.376Z,48.77
2022-08-16T23:45:52.600Z,48.28
2022-08-16T23:50:56.993Z,48.38
2022-08-16T23:56:00.939Z,48.53
